createdAt,value
2022-08-20T00:02:09.008Z,21.18
2022-08-20T00:04:35.761Z,21.07
2022-08-20T00:07:02.410Z,21.14
2022-08-20T00:09:29.940Z,21.19
2022-08-20T00:11:56.720Z,21.14
2022-08-20T00:14:23.268Z,21.17
2022-08-20T00:16:50.166Z,21.05
2022-08-20T00:19:18.384Z,21.03
2022-08-20T00:21:44.911Z,21.05
2022-08-20T00:24:13.530Z,21.02
2022-08-20T00:26:52.245Z,21.13
2022-08-20T00:29:20.311Z,21.18
2022-08-20T00:31:47.301Z,21.24
2022-08-20T00:34:13.880Z,21.19
2022-08-20T00:36:40.423Z,21.24
2022-08-20T00:39:06.971Z,21.04
2022-08-20T00:41:33.530Z,20.93
2022-08-20T00:44:22.572Z,21.15
2022-08-20T00:46:49.999Z,21.16
2022-08-20T00:49:22.203Z,21.18
2022-08-20T00:51:54.738Z,21.24
2022-08-20T00:54:43.711Z,21.25
2022-08-20T00:57:56.767Z,21.26
2022-08-20T01:00:22.316Z,21.25
2022-08-20T01:02:50.708Z,21.24
2022-08-20T01:05:18.519Z,21.19
2022-08-20T01:07:45.727Z,21.05
2022-08-20T01:10:19.436Z,21.10
2022-08-20T01:12:47.604Z,21.10
2022-08-20T01:15:18.717Z,21.08
2022-08-20T01:17:54.637Z,21.16
2022-08-20T01:20:36.471Z,21.15
2022-08-20T01:23:27.129Z,21.12
2022-08-20T01:26:09.642Z,21.19
2022-08-20T01:28:41.377Z,21.16
2022-08-20T01:31:12.336Z,21.19
2022-08-20T01:33:39.843Z,20.92
2022-08-20T01:36:10.518Z,21.12
2022-08-20T01:38:40.493Z,21.10
2022-08-20T01:41:28.469Z,21.15
2022-08-20T01:43:58.340Z,21.17
2022-08-20T01:46:28.197Z,21.12
2022-08-20T01:48:56.315Z,20.99
2022-08-20T01:51:28.654Z,21.08
2022-08-20T01:53:59.699Z,21.02
2022-08-20T01:56:29.884Z,20.95
2022-08-20T01:58:59.304Z,21.04
2022-08-20T02:01:30.549Z,21.01
2022-08-20T02:03:58.983Z,20.97
2022-08-20T02:06:26.712Z,20.88
2022-08-20T02:08:56.002Z,20.99
2022-08-20T02:11:23.461Z,21.01
2022-08-20T02:13:52.572Z,20.99
2022-08-20T02:16:24.291Z,20.99
2022-08-20T02:18:54.414Z,20.91
2022-08-20T02:21:23.451Z,20.92
2022-08-20T02:23:50.336Z,20.90
2022-08-20T02:26:19.315Z,20.88
2022-08-20T02:28:50.816Z,20.90
2022-08-20T02:31:19.183Z,20.86
2022-08-20T02:34:21.575Z,20.79
2022-08-20T02:36:33.253Z,20.82
2022-08-20T02:38:59.777Z,20.76
2022-08-20T02:41:26.681Z,20.73
2022-08-20T02:43:53.283Z,20.73
2022-08-20T02:46:19.772Z,20.72
2022-08-20T02:48:46.275Z,20.70
2022-08-20T02:51:13.032Z,20.68
2022-08-20T02:53:42.099Z,20.68
2022-08-20T02:56:10.578Z,20.68
2022-08-20T02:58:38.729Z,20.70
2022-08-20T03:01:08.802Z,20.62
2022-08-20T03:03:35.357Z,20.58
2022-08-20T03:06:02.831Z,20.58
2022-08-20T03:08:29.397Z,20.60
2022-08-20T03:10:56.834Z,20.58
2022-08-20T03:13:24.502Z,20.56
2022-08-20T03:15:58.656Z,20.58
2022-08-20T03:18:30.012Z,20.58
2022-08-20T03:20:56.620Z,20.54
2022-08-20T03:23:23.855Z,20.46
2022-08-20T03:25:50.542Z,20.39
2022-08-20T03:28:17.668Z,20.46
2022-08-20T03:30:44.474Z,20.43
2022-08-20T03:33:11.521Z,20.41
2022-08-20T03:35:38.770Z,20.44
2022-08-20T03:38:10.980Z,20.37
2022-08-20T03:40:38.415Z,20.32
2022-08-20T03:43:08.641Z,20.28
2022-08-20T03:45:37.726Z,20.24
2022-08-20T03:48:06.404Z,20.16
2022-08-20T03:50:34.074Z,20.20
2022-08-20T03:53:01.319Z,20.17
2022-08-20T03:55:30.316Z,20.12
2022-08-20T03:57:59.472Z,20.10
2022-08-20T04:00:32.565Z,20.14
2022-08-20T04:03:00.404Z,20.17
2022-08-20T04:05:29.764Z,20.18
2022-08-20T04:08:02.854Z,20.04
2022-08-20T04:10:29.979Z,20.10
2022-08-20T04:12:56.445Z,20.07
2022-08-20T04:15:24.660Z,20.14
2022-08-20T04:17:52.666Z,20.17
2022-08-20T04:20:23.290Z,20.12
2022-08-20T04:22:59.274Z,20.10
2022-08-20T04:25:28.452Z,20.16
2022-08-20T04:27:57.056Z,20.14
2022-08-20T04:30:24.394Z,20.15
2022-08-20T04:32:51.312Z,20.16
2022-08-20T04:35:18.722Z,20.11
2022-08-20T04:37:46.690Z,20.05
2022-08-20T04:40:37.844Z,20.06
2022-08-20T04:43:05.393Z,20.00
2022-08-20T04:45:33.431Z,19.85
2022-08-20T04:48:10.563Z,19.84
2022-08-20T04:50:41.765Z,19.82
2022-08-20T04:53:11.125Z,19.79
2022-08-20T04:55:42.310Z,19.81
2022-08-20T04:58:16.793Z,19.79
2022-08-20T05:00:47.098Z,19.71
2022-08-20T05:03:13.669Z,19.75
2022-08-20T05:05:40.299Z,19.70
2022-08-20T05:08:06.794Z,19.64
2022-08-20T05:10:47.295Z,19.59
2022-08-20T05:13:13.798Z,19.61
2022-08-20T05:15:40.823Z,19.62
2022-08-20T05:18:10.925Z,19.62
2022-08-20T05:20:41.518Z,19.61
2022-08-20T05:23:11.078Z,19.59
2022-08-20T05:25:38.578Z,19.59
2022-08-20T05:28:12.557Z,19.52
2022-08-20T05:30:44.260Z,19.53
2022-08-20T05:33:18.987Z,19.54
2022-08-20T05:35:47.181Z,19.56
2022-08-20T05:38:15.710Z,19.57
2022-08-20T05:40:42.947Z,19.64
2022-08-20T05:43:09.507Z,19.53
2022-08-20T05:45:38.924Z,19.61
2022-08-20T05:48:11.426Z,19.70
2022-08-20T05:50:43.359Z,19.71
2022-08-20T05:53:09.942Z,19.72
2022-08-20T05:55:39.932Z,19.75
2022-08-20T05:58:14.109Z,19.83
2022-08-20T06:00:40.794Z,19.85
2022-08-20T06:03:25.952Z,19.89
2022-08-20T06:05:52.446Z,19.91
2022-08-20T06:08:19.022Z,19.98
2022-08-20T06:10:45.899Z,19.82
2022-08-20T06:13:13.931Z,19.98
2022-08-20T06:15:40.953Z,19.94
2022-08-20T06:18:27.451Z,19.95
2022-08-20T06:20:55.075Z,19.95
2022-08-20T06:23:23.182Z,19.97
2022-08-20T06:25:52.587Z,19.97
2022-08-20T06:28:19.331Z,19.98
2022-08-20T06:30:45.916Z,20.23
2022-08-20T06:33:12.470Z,20.39
2022-08-20T06:35:39.280Z,20.62
2022-08-20T06:38:05.914Z,20.77
2022-08-20T06:40:34.114Z,20.84
2022-08-20T06:43:01.515Z,20.93
2022-08-20T06:45:31.590Z,20.92
2022-08-20T06:48:01.148Z,21.16
2022-08-20T06:50:32.928Z,21.29
2022-08-20T06:53:00.167Z,21.23
2022-08-20T06:55:26.910Z,21.33
2022-08-20T06:57:59.365Z,21.34
2022-08-20T07:00:26.545Z,21.36
2022-08-20T07:02:53.089Z,21.34
2022-08-20T07:05:19.711Z,21.48
2022-08-20T07:07:47.598Z,21.58
2022-08-20T07:10:15.133Z,21.62
2022-08-20T07:12:41.917Z,21.73
2022-08-20T07:15:11.067Z,21.81
2022-08-20T07:17:38.221Z,21.66
2022-08-20T07:20:15.259Z,21.72
2022-08-20T07:22:42.361Z,21.84
2022-08-20T07:25:12.573Z,22.09
2022-08-20T07:27:40.141Z,22.20
2022-08-20T07:30:28.229Z,22.12
2022-08-20T07:32:55.486Z,22.21
2022-08-20T07:35:21.980Z,22.15
2022-08-20T07:37:51.428Z,22.20
2022-08-20T07:40:25.896Z,22.27
2022-08-20T07:42:57.466Z,22.39
2022-08-20T07:45:24.725Z,22.41
2022-08-20T07:47:53.575Z,22.23
2022-08-20T07:50:23.076Z,22.18
2022-08-20T07:52:52.609Z,22.29
2022-08-20T07:55:21.124Z,22.37
2022-08-20T07:57:50.266Z,22.42
2022-08-20T08:00:19.235Z,22.21
2022-08-20T08:02:46.487Z,22.22
2022-08-20T08:05:13.113Z,22.31
2022-08-20T08:07:43.032Z,22.43
2022-08-20T08:10:13.906Z,22.69
2022-08-20T08:12:45.246Z,22.74
2022-08-20T08:15:16.894Z,22.58
2022-08-20T08:17:46.989Z,22.29
2022-08-20T08:20:14.491Z,22.15
2022-08-20T08:22:44.179Z,21.99
2022-08-20T08:25:13.041Z,22.00
2022-08-20T08:27:40.281Z,22.22
2022-08-20T08:30:09.217Z,22.44
2022-08-20T08:32:38.151Z,22.71
2022-08-20T08:35:09.050Z,22.90
2022-08-20T08:37:37.735Z,22.85
2022-08-20T08:40:05.804Z,22.93
2022-08-20T08:42:32.660Z,22.99
2022-08-20T08:45:00.467Z,23.07
2022-08-20T08:47:34.590Z,23.04
2022-08-20T08:50:02.676Z,22.84
2022-08-20T08:52:33.104Z,23.15
2022-08-20T08:55:03.853Z,23.26
2022-08-20T08:57:30.439Z,23.34
2022-08-20T09:00:04.049Z,23.53
2022-08-20T09:02:33.294Z,23.75
2022-08-20T09:05:03.690Z,23.76
2022-08-20T09:07:33.570Z,23.57
2022-08-20T09:10:01.589Z,23.75
2022-08-20T09:12:28.388Z,23.89
2022-08-20T09:14:55.074Z,24.08
2022-08-20T09:17:22.953Z,24.19
2022-08-20T09:19:52.090Z,24.36
2022-08-20T09:22:21.697Z,24.27
2022-08-20T09:24:50.082Z,24.13
2022-08-20T09:27:16.634Z,24.06
2022-08-20T09:29:43.542Z,24.10
2022-08-20T09:32:19.396Z,24.16
2022-08-20T09:34:51.810Z,24.19
2022-08-20T09:37:19.139Z,24.29
2022-08-20T09:39:46.233Z,24.54
2022-08-20T09:42:19.462Z,24.24
2022-08-20T09:44:46.625Z,24.31
2022-08-20T09:47:13.491Z,24.45
2022-08-20T09:49:40.488Z,24.64
2022-08-20T09:52:10.494Z,24.61
2022-08-20T09:54:46.378Z,24.72
2022-08-20T09:57:14.695Z,24.77
2022-08-20T09:59:41.355Z,24.60
2022-08-20T10:02:08.054Z,24.69
2022-08-20T10:04:34.713Z,24.78
2022-08-20T10:07:01.227Z,24.72
2022-08-20T10:09:27.774Z,24.49
2022-08-20T10:11:54.469Z,24.18
2022-08-20T10:14:20.936Z,24.08
2022-08-20T10:16:55.467Z,24.24
2022-08-20T10:19:30.112Z,24.60
2022-08-20T10:21:57.887Z,24.89
2022-08-20T10:24:24.803Z,25.27
2022-08-20T10:26:54.347Z,25.45
2022-08-20T10:29:21.119Z,25.84
2022-08-20T10:31:47.736Z,25.88
2022-08-20T10:34:14.207Z,25.67
2022-08-20T10:36:43.303Z,25.49
2022-08-20T10:39:10.171Z,25.08
2022-08-20T10:41:39.059Z,24.94
2022-08-20T10:44:06.095Z,24.85
2022-08-20T10:46:32.589Z,24.93
2022-08-20T10:48:59.189Z,25.09
2022-08-20T10:51:32.235Z,25.26
2022-08-20T10:53:59.542Z,25.52
2022-08-20T10:56:26.083Z,25.71
2022-08-20T10:58:52.943Z,25.52
2022-08-20T11:01:31.150Z,25.68
2022-08-20T11:04:00.007Z,25.87
2022-08-20T11:06:26.503Z,25.62
2022-08-20T11:08:53.018Z,25.60
2022-08-20T11:11:19.724Z,25.88
2022-08-20T11:13:46.457Z,25.75
2022-08-20T11:16:14.199Z,25.64
2022-08-20T11:18:44.978Z,25.58
2022-08-20T11:21:13.807Z,25.58
2022-08-20T11:23:40.282Z,25.55
2022-08-20T11:26:07.126Z,25.66
2022-08-20T11:28:33.954Z,25.64
2022-08-20T11:31:01.839Z,25.45
2022-08-20T11:33:29.026Z,25.40
2022-08-20T11:35:55.521Z,25.12
2022-08-20T11:38:22.145Z,24.96
2022-08-20T11:40:48.886Z,25.12
2022-08-20T11:43:16.964Z,25.05
2022-08-20T11:45:50.433Z,25.08
2022-08-20T11:48:17.971Z,25.47
2022-08-20T11:50:44.866Z,25.90
2022-08-20T11:53:11.350Z,26.28
2022-08-20T11:55:38.590Z,26.56
2022-08-20T11:58:05.925Z,26.85
2022-08-20T12:00:34.095Z,27.21
2022-08-20T12:03:04.939Z,27.46
2022-08-20T12:05:31.864Z,27.47
2022-08-20T12:08:01.171Z,27.52
2022-08-20T12:10:28.781Z,27.49
2022-08-20T12:12:56.100Z,27.54
2022-08-20T12:15:24.465Z,27.82
2022-08-20T12:17:51.170Z,27.61
2022-08-20T12:20:18.074Z,27.81
2022-08-20T12:22:45.119Z,27.75
2022-08-20T12:25:13.310Z,27.75
2022-08-20T12:27:43.053Z,27.70
2022-08-20T12:30:15.664Z,27.77
2022-08-20T12:32:42.617Z,27.39
2022-08-20T12:35:10.714Z,26.97
2022-08-20T12:37:37.506Z,26.64
2022-08-20T12:40:08.688Z,26.98
2022-08-20T12:42:35.573Z,27.24
2022-08-20T12:45:03.139Z,27.47
2022-08-20T12:47:35.090Z,27.62
2022-08-20T12:50:09.162Z,27.74
2022-08-20T12:52:36.091Z,27.62
2022-08-20T12:55:07.841Z,27.49
2022-08-20T12:57:56.494Z,27.28
2022-08-20T13:00:35.844Z,26.83
2022-08-20T13:03:05.664Z,26.73
2022-08-20T13:05:33.238Z,26.93
2022-08-20T13:07:59.979Z,27.42
2022-08-20T13:10:33.422Z,27.86
2022-08-20T13:13:04.365Z,28.19
2022-08-20T13:15:32.158Z,28.62
2022-08-20T13:18:03.771Z,28.57
2022-08-20T13:20:34.577Z,28.73
2022-08-20T13:23:03.031Z,28.71
2022-08-20T13:25:30.003Z,28.54
2022-08-20T13:27:58.905Z,28.53
2022-08-20T13:30:26.844Z,28.18
2022-08-20T13:32:53.744Z,28.21
2022-08-20T13:35:20.399Z,28.40
2022-08-20T13:37:49.116Z,28.43
2022-08-20T13:40:16.728Z,28.31
2022-08-20T13:42:43.336Z,28.38
2022-08-20T13:45:10.855Z,28.17
2022-08-20T13:47:54.329Z,27.87
2022-08-20T13:50:22.871Z,27.63
2022-08-20T13:52:49.473Z,27.56
2022-08-20T13:55:18.691Z,27.47
2022-08-20T13:57:46.015Z,27.32
2022-08-20T14:00:16.894Z,27.47
2022-08-20T14:02:44.384Z,27.59
2022-08-20T14:05:11.626Z,27.51
2022-08-20T14:07:40.794Z,27.54
2022-08-20T14:10:11.968Z,27.91
2022-08-20T14:12:38.662Z,28.07
2022-08-20T14:15:06.238Z,28.12
2022-08-20T14:17:39.779Z,28.22
2022-08-20T14:20:15.313Z,28.52
2022-08-20T14:22:42.886Z,28.41
2022-08-20T14:25:14.813Z,28.21
2022-08-20T14:27:42.208Z,28.09
2022-08-20T14:30:12.844Z,27.95
2022-08-20T14:32:39.594Z,27.90
2022-08-20T14:35:07.640Z,27.58
2022-08-20T14:37:40.136Z,27.61
2022-08-20T14:40:09.757Z,27.78
2022-08-20T14:42:36.573Z,27.58
2022-08-20T14:45:06.262Z,27.60
2022-08-20T14:47:40.271Z,27.65
2022-08-20T14:50:20.422Z,27.65
2022-08-20T14:52:46.999Z,27.52
2022-08-20T14:55:16.639Z,27.37
2022-08-20T14:57:44.022Z,27.22
2022-08-20T15:00:15.754Z,26.90
2022-08-20T15:02:42.332Z,26.66
2022-08-20T15:05:09.041Z,26.53
2022-08-20T15:07:39.160Z,26.22
2022-08-20T15:10:09.732Z,26.50
2022-08-20T15:12:37.179Z,26.48
2022-08-20T15:15:15.570Z,26.56
2022-08-20T15:17:45.705Z,26.82
2022-08-20T15:20:20.456Z,27.31
2022-08-20T15:22:48.503Z,27.91
2022-08-20T15:25:17.534Z,27.85
2022-08-20T15:27:45.364Z,27.79
2022-08-20T15:30:21.107Z,27.76
2022-08-20T15:32:52.691Z,27.67
2022-08-20T15:35:22.541Z,27.54
2022-08-20T15:37:50.379Z,27.41
2022-08-20T15:40:24.492Z,27.52
2022-08-20T15:42:53.924Z,27.58
2022-08-20T15:45:22.041Z,27.35
2022-08-20T15:47:55.932Z,27.30
2022-08-20T15:50:32.968Z,27.63
2022-08-20T15:53:07.374Z,28.21
2022-08-20T15:55:37.872Z,28.49
2022-08-20T15:58:17.549Z,28.98
2022-08-20T16:01:23.879Z,29.24
2022-08-20T16:04:26.201Z,29.21
2022-08-20T16:06:57.503Z,28.96
2022-08-20T16:09:39.329Z,28.69
2022-08-20T16:12:16.212Z,29.20
2022-08-20T16:14:46.333Z,29.56
2022-08-20T16:17:16.950Z,29.37
2022-08-20T16:19:51.313Z,29.32
2022-08-20T16:22:19.735Z,29.28
2022-08-20T16:24:46.700Z,29.59
2022-08-20T16:27:32.058Z,29.86
2022-08-20T16:30:11.896Z,29.83
2022-08-20T16:32:44.809Z,29.55
2022-08-20T16:35:30.419Z,29.95
2022-08-20T16:38:23.576Z,29.77
2022-08-20T16:41:06.621Z,29.67
2022-08-20T16:43:36.973Z,29.96
2022-08-20T16:46:12.433Z,30.32
2022-08-20T16:48:46.823Z,30.31
2022-08-20T16:51:19.993Z,29.81
2022-08-20T16:53:46.601Z,29.54
2022-08-20T16:56:13.428Z,29.68
2022-08-20T16:58:43.923Z,29.97
2022-08-20T17:01:13.503Z,29.97
2022-08-20T17:03:49.967Z,30.17
2022-08-20T17:06:25.604Z,30.65
2022-08-20T17:08:53.189Z,30.67
2022-08-20T17:11:33.234Z,30.63
2022-08-20T17:14:19.319Z,30.65
2022-08-20T17:16:49.655Z,30.73
2022-08-20T17:19:28.985Z,30.96
2022-08-20T17:22:07.249Z,31.58
2022-08-20T17:24:34.020Z,31.57
2022-08-20T17:27:10.228Z,31.61
2022-08-20T17:29:53.217Z,31.62
2022-08-20T17:32:25.997Z,31.04
2022-08-20T17:34:56.301Z,30.71
2022-08-20T17:37:22.754Z,30.45
2022-08-20T17:39:52.608Z,29.86
2022-08-20T17:42:26.054Z,29.12
2022-08-20T17:45:04.250Z,27.82
2022-08-20T17:47:34.875Z,26.86
2022-08-20T17:50:10.936Z,26.32
2022-08-20T17:52:56.122Z,26.00
2022-08-20T17:55:23.123Z,25.59
2022-08-20T17:57:55.178Z,25.62
2022-08-20T18:00:25.564Z,25.55
2022-08-20T18:03:00.667Z,25.50
2022-08-20T18:05:31.235Z,25.43
2022-08-20T18:08:19.152Z,25.17
2022-08-20T18:10:54.305Z,24.82
2022-08-20T18:13:36.833Z,24.67
2022-08-20T18:16:20.983Z,24.56
2022-08-20T18:19:01.118Z,24.49
2022-08-20T18:21:30.289Z,24.53
2022-08-20T18:24:05.882Z,24.33
2022-08-20T18:26:46.895Z,24.25
2022-08-20T18:29:27.501Z,24.08
2022-08-20T18:32:00.315Z,24.01
2022-08-20T18:34:29.859Z,23.96
2022-08-20T18:37:02.575Z,23.96
2022-08-20T18:39:35.900Z,23.83
2022-08-20T18:42:09.889Z,23.76
2022-08-20T18:44:51.181Z,23.80
2022-08-20T18:47:26.986Z,23.82
2022-08-20T18:50:31.099Z,23.75
2022-08-20T18:53:13.337Z,23.60
2022-08-20T18:55:43.606Z,23.47
2022-08-20T18:58:12.093Z,23.60
2022-08-20T19:00:49.660Z,23.49
2022-08-20T19:03:29.889Z,23.46
2022-08-20T19:06:03.011Z,23.51
2022-08-20T19:08:51.016Z,23.42
2022-08-20T19:11:42.535Z,23.44
2022-08-20T19:14:23.714Z,23.39
2022-08-20T19:17:00.029Z,23.19
2022-08-20T19:19:30.794Z,23.21
2022-08-20T19:22:01.478Z,23.03
2022-08-20T19:24:34.784Z,23.01
2022-08-20T19:27:05.718Z,22.87
2022-08-20T19:29:36.548Z,22.83
2022-08-20T19:32:07.310Z,22.68
2022-08-20T19:34:35.259Z,22.69
2022-08-20T19:37:34.803Z,22.71
2022-08-20T19:40:20.758Z,22.60
2022-08-20T19:42:48.625Z,22.54
2022-08-20T19:45:26.073Z,22.44
2022-08-20T19:48:05.998Z,22.52
2022-08-20T19:50:42.111Z,22.39
2022-08-20T19:53:30.165Z,22.39
2022-08-20T19:56:02.889Z,22.29
2022-08-20T19:58:31.322Z,22.28
2022-08-20T20:00:59.022Z,22.21
2022-08-20T20:03:33.405Z,22.28
2022-08-20T20:06:16.601Z,22.23
2022-08-20T20:09:05.433Z,22.20
2022-08-20T20:11:45.825Z,22.26
2022-08-20T20:14:15.586Z,22.13
2022-08-20T20:16:42.345Z,22.21
2022-08-20T20:19:28.040Z,22.21
2022-08-20T20:22:39.575Z,22.20
2022-08-20T20:25:13.921Z,22.18
2022-08-20T20:27:41.286Z,22.04
2022-08-20T20:30:12.066Z,22.04
2022-08-20T20:32:43.574Z,21.98
2022-08-20T20:35:10.539Z,21.96
2022-08-20T20:37:49.696Z,21.94
2022-08-20T20:40:49.658Z,21.91
2022-08-20T20:43:35.935Z,21.89
2022-08-20T20:46:23.783Z,21.79
2022-08-20T20:49:09.003Z,21.68
2022-08-20T20:51:39.901Z,21.65
2022-08-20T20:54:24.089Z,21.62
2022-08-20T20:57:03.113Z,21.53
2022-08-20T20:59:31.958Z,21.43
2022-08-20T21:01:58.605Z,21.38
2022-08-20T21:04:25.857Z,21.34
2022-08-20T21:06:54.589Z,21.30
2022-08-20T21:09:22.906Z,21.27
2022-08-20T21:11:49.950Z,21.21
2022-08-20T21:14:17.101Z,21.24
2022-08-20T21:16:44.221Z,21.16
2022-08-20T21:19:12.037Z,21.08
2022-08-20T21:21:40.893Z,21.12
2022-08-20T21:24:08.259Z,21.05
2022-08-20T21:26:35.375Z,21.01
2022-08-20T21:29:02.204Z,21.02
2022-08-20T21:31:44.016Z,21.01
2022-08-20T21:34:12.200Z,20.88
2022-08-20T21:36:38.997Z,20.89
2022-08-20T21:39:05.663Z,20.83
2022-08-20T21:41:32.706Z,20.82
2022-08-20T21:44:21.141Z,20.75
2022-08-20T21:46:49.221Z,20.62
2022-08-20T21:49:15.812Z,20.60
2022-08-20T21:51:42.850Z,20.53
2022-08-20T21:54:09.390Z,20.57
2022-08-20T21:56:37.166Z,20.42
2022-08-20T21:59:04.953Z,20.40
2022-08-20T22:01:34.639Z,20.41
2022-08-20T22:04:01.211Z,20.43
2022-08-20T22:06:27.907Z,20.39
2022-08-20T22:08:54.628Z,20.28
2022-08-20T22:11:21.115Z,20.33
2022-08-20T22:13:47.884Z,20.32
2022-08-20T22:16:18.395Z,20.17
2022-08-20T22:18:46.736Z,20.23
2022-08-20T22:21:20.753Z,20.13
2022-08-20T22:23:47.640Z,20.17
2022-08-20T22:26:15.081Z,20.14
2022-08-20T22:28:42.126Z,20.11
2022-08-20T22:31:09.778Z,20.08
2022-08-20T22:33:39.028Z,20.01
2022-08-20T22:36:06.554Z,19.93
2022-08-20T22:38:33.471Z,19.91
2022-08-20T22:41:02.719Z,19.90
2022-08-20T22:43:30.906Z,19.84
2022-08-20T22:46:00.461Z,19.86
2022-08-20T22:48:28.000Z,19.87
2022-08-20T22:50:55.002Z,19.76
2022-08-20T22:53:24.020Z,19.80
2022-08-20T22:55:50.990Z,19.73
2022-08-20T22:58:18.171Z,19.54
2022-08-20T23:00:47.273Z,19.73
2022-08-20T23:03:18.041Z,19.56
2022-08-20T23:06:03.480Z,19.61
2022-08-20T23:08:30.551Z,19.59
2022-08-20T23:10:57.082Z,19.46
2022-08-20T23:13:23.825Z,19.51
2022-08-20T23:15:50.699Z,19.43
2022-08-20T23:18:19.558Z,19.45
2022-08-20T23:20:51.794Z,19.40
2022-08-20T23:23:18.678Z,19.40
2022-08-20T23:25:45.813Z,19.36
2022-08-20T23:28:12.506Z,19.31
2022-08-20T23:30:39.422Z,19.27
2022-08-20T23:33:06.059Z,19.21
2022-08-20T23:35:33.214Z,19.21
2022-08-20T23:38:00.390Z,19.14
2022-08-20T23:40:29.489Z,19.16
2022-08-20T23:42:57.285Z,19.09
2022-08-20T23:45:24.670Z,19.11
2022-08-20T23:47:51.589Z,19.08
2022-08-20T23:50:24.283Z,19.01
2022-08-20T23:52:51.870Z,19.01
2022-08-20T23:55:18.907Z,18.93
2022-08-20T23:57:45.641Z,18.88
